Time;durP1;ratioP1;P1;durP2;ratioP2;P2;SDS_P1;SDS_P2;PMS_P1;PMS_P2;Temp;Humidity;BMP_temperature;BMP_pressure;BME280_temperature;BME280_humidity;BME280_pressure;Samples;Min_cycle;Max_cycle;Signal;HPM_P1;HPM_P2
2021/12/30 00:00:55;;;;;;;19.50;7.10;;;12.20;99.90;;;;;;5009287;28;20448;-67
2021/12/30 00:03:21;;;;;;;14.37;6.47;;;12.20;99.90;;;;;;5012038;28;20420;-68
2021/12/30 00:05:47;;;;;;;16.93;7.40;;;12.20;99.90;;;;;;5004083;28;20809;-68
2021/12/30 00:08:13;;;;;;;17.43;7.80;;;12.30;99.90;;;;;;5011872;28;20595;-67
2021/12/30 00:10:40;;;;;;;26.27;7.20;;;12.30;99.90;;;;;;5012169;28;20419;-69
2021/12/30 00:13:06;;;;;;;18.70;7.90;;;12.30;99.90;;;;;;5011145;28;20430;-68
2021/12/30 00:15:32;;;;;;;15.90;6.23;;;12.30;99.90;;;;;;5011639;28;20183;-68
2021/12/30 00:17:58;;;;;;;23.13;7.10;;;12.30;99.90;;;;;;5011696;28;20183;-69
2021/12/30 00:20:23;;;;;;;13.30;6.17;;;12.30;99.90;;;;;;5012104;28;20647;-69
2021/12/30 00:22:49;;;;;;;12.83;5.67;;;12.30;99.90;;;;;;5010199;28;20418;-69
2021/12/30 00:25:15;;;;;;;13.17;6.90;;;12.30;99.90;;;;;;5011026;28;20171;-68
2021/12/30 00:27:41;;;;;;;14.87;5.70;;;12.30;99.90;;;;;;5015513;28;20214;-68
2021/12/30 00:30:10;;;;;;;14.97;5.73;;;12.20;99.90;;;;;;5015911;28;20443;-68
2021/12/30 00:32:35;;;;;;;17.03;6.43;;;12.30;99.90;;;;;;5015757;28;20198;-68
2021/12/30 00:35:01;;;;;;;15.90;6.70;;;12.30;99.90;;;;;;5015203;28;20414;-68
2021/12/30 00:37:27;;;;;;;14.00;6.80;;;12.20;99.90;;;;;;5015642;28;20199;-68
2021/12/30 00:39:52;;;;;;;19.67;5.77;;;12.20;99.90;;;;;;5014037;28;20649;-67
2021/12/30 00:42:18;;;;;;;10.33;4.93;;;12.20;99.90;;;;;;5015522;28;20207;-68
2021/12/30 00:44:44;;;;;;;17.57;5.80;;;12.20;99.90;;;;;;5015264;28;20645;-68
2021/12/30 00:47:09;;;;;;;17.30;6.40;;;12.20;99.90;;;;;;5015651;28;20195;-67
2021/12/30 00:49:35;;;;;;;18.17;6.20;;;12.20;99.90;;;;;;5015523;28;20179;-67
2021/12/30 00:52:00;;;;;;;14.27;6.03;;;12.10;99.90;;;;;;5015725;28;20242;-69
2021/12/30 00:54:26;;;;;;;22.47;6.10;;;12.10;99.90;;;;;;5015460;28;20163;-69
2021/12/30 00:56:52;;;;;;;11.67;6.00;;;12.10;99.90;;;;;;5000644;28;20199;-68
2021/12/30 00:59:18;;;;;;;11.60;6.77;;;12.10;99.90;;;;;;4995949;28;20934;-69
2021/12/30 01:01:43;;;;;;;17.67;7.20;;;12.10;99.90;;;;;;4996099;28;20247;-68
2021/12/30 01:04:09;;;;;;;14.83;6.80;;;12.10;99.90;;;;;;4995776;28;20164;-69
2021/12/30 01:06:35;;;;;;;15.07;6.20;;;12.10;99.90;;;;;;5013930;28;20195;-69
2021/12/30 01:09:02;;;;;;;19.43;6.67;;;12.10;99.90;;;;;;5015238;28;20407;-69
2021/12/30 01:11:28;;;;;;;18.43;7.20;;;12.10;99.90;;;;;;5015179;28;20199;-69
2021/12/30 01:14:02;;;;;;;15.90;7.43;;;12.10;99.90;;;;;;5014983;28;20496;-70
2021/12/30 01:16:31;;;;;;;11.47;6.23;;;12.00;99.90;;;;;;5013404;28;20203;-69
2021/12/30 01:21:29;;;;;;;17.77;6.63;;;12.00;99.90;;;;;;5015076;28;20434;-68
2021/12/30 01:23:56;;;;;;;19.53;7.40;;;12.00;99.90;;;;;;5015047;28;20925;-70
2021/12/30 01:26:22;;;;;;;16.20;7.60;;;12.00;99.90;;;;;;5014657;28;20442;-70
2021/12/30 01:28:49;;;;;;;17.77;7.57;;;12.10;99.90;;;;;;5014837;28;20912;-70
2021/12/30 01:31:16;;;;;;;26.70;9.53;;;12.10;99.90;;;;;;5014361;28;20946;-69
2021/12/30 01:33:43;;;;;;;15.40;7.83;;;12.10;99.90;;;;;;5014220;28;20442;-69
2021/12/30 01:36:10;;;;;;;16.60;8.20;;;12.10;99.90;;;;;;5014522;28;20427;-70
2021/12/30 01:38:36;;;;;;;19.17;7.53;;;12.10;99.90;;;;;;5013453;28;20795;-68
2021/12/30 01:41:02;;;;;;;14.50;7.30;;;12.10;99.90;;;;;;5014967;28;20409;-69
2021/12/30 01:43:28;;;;;;;12.03;5.90;;;12.10;99.90;;;;;;5014574;28;20427;-69
2021/12/30 01:45:54;;;;;;;18.43;7.67;;;12.10;99.90;;;;;;5014477;28;20434;-69
2021/12/30 01:48:23;;;;;;;23.87;7.00;;;12.10;99.90;;;;;;5014238;28;20425;-69
2021/12/30 01:50:50;;;;;;;19.87;6.60;;;12.10;99.90;;;;;;5014565;28;20441;-70
2021/12/30 01:53:15;;;;;;;16.57;6.00;;;12.10;99.90;;;;;;5014251;28;20454;-69
2021/12/30 01:55:42;;;;;;;14.57;5.70;;;12.10;99.90;;;;;;5014469;28;20494;-68
2021/12/30 01:58:09;;;;;;;13.70;5.60;;;12.00;99.90;;;;;;5014270;28;20251;-68
2021/12/30 02:00:35;;;;;;;21.93;6.90;;;12.10;99.90;;;;;;5014320;28;20783;-69
2021/12/30 02:03:01;;;;;;;18.77;5.77;;;12.10;99.90;;;;;;5014154;28;20418;-69
2021/12/30 02:05:28;;;;;;;15.73;6.33;;;12.20;99.90;;;;;;5013818;28;20422;-70
2021/12/30 02:07:54;;;;;;;14.77;5.83;;;12.20;99.90;;;;;;5014048;28;20670;-69
2021/12/30 02:10:19;;;;;;;19.97;6.00;;;12.20;99.90;;;;;;5014062;28;20426;-70
2021/12/30 02:12:46;;;;;;;16.27;5.60;;;12.20;99.90;;;;;;5013711;28;21013;-69
2021/12/30 02:15:15;;;;;;;10.67;5.03;;;12.20;99.90;;;;;;5014012;28;20164;-69
2021/12/30 02:17:41;;;;;;;18.60;5.90;;;12.20;99.90;;;;;;5013130;28;20972;-68
2021/12/30 02:20:11;;;;;;;15.77;6.17;;;12.20;99.90;;;;;;5014103;28;20409;-69
2021/12/30 02:22:37;;;;;;;13.17;6.10;;;12.20;99.90;;;;;;5013662;28;20179;-69
2021/12/30 02:25:04;;;;;;;18.17;7.50;;;12.20;99.90;;;;;;5014171;28;20407;-69
2021/12/30 02:27:30;;;;;;;14.27;6.03;;;12.20;99.90;;;;;;5013380;28;20226;-70
2021/12/30 02:29:56;;;;;;;16.73;6.20;;;12.20;99.90;;;;;;5013572;28;20958;-70
2021/12/30 02:32:22;;;;;;;14.07;6.30;;;12.20;99.90;;;;;;5013416;28;20446;-70
2021/12/30 02:34:51;;;;;;;18.77;6.23;;;12.20;99.90;;;;;;5013723;28;20180;-69
2021/12/30 02:37:18;;;;;;;15.10;6.80;;;12.20;99.90;;;;;;5013175;28;20450;-69
2021/12/30 02:39:48;;;;;;;17.93;6.93;;;12.30;99.90;;;;;;5013043;28;20430;-69
2021/12/30 02:42:14;;;;;;;17.27;6.30;;;12.30;99.90;;;;;;5012290;28;20417;-69
2021/12/30 02:44:40;;;;;;;15.07;5.70;;;12.20;99.90;;;;;;5013404;28;20410;-69
2021/12/30 02:47:05;;;;;;;17.37;6.93;;;12.30;99.90;;;;;;5012971;28;20194;-68
2021/12/30 02:49:31;;;;;;;13.70;6.40;;;12.30;99.90;;;;;;5012882;28;20532;-69
2021/12/30 02:51:56;;;;;;;12.90;6.10;;;12.30;99.90;;;;;;5013147;28;20533;-69
2021/12/30 02:54:22;;;;;;;15.60;7.57;;;12.40;99.90;;;;;;5012919;28;20209;-68
2021/12/30 02:56:48;;;;;;;19.80;7.40;;;12.30;99.90;;;;;;5012799;28;20275;-69
2021/12/30 02:59:15;;;;;;;13.93;8.03;;;12.30;99.90;;;;;;5012930;28;20826;-69
2021/12/30 03:01:41;;;;;;;14.77;7.37;;;12.30;99.90;;;;;;5012587;28;20426;-68
2021/12/30 03:04:07;;;;;;;13.60;7.17;;;12.20;99.90;;;;;;5013116;28;20414;-69
2021/12/30 03:06:33;;;;;;;11.10;6.77;;;12.30;99.90;;;;;;5005873;28;20200;-69
2021/12/30 03:08:59;;;;;;;16.23;7.10;;;12.20;99.90;;;;;;5012740;28;20182;-69
2021/12/30 03:11:26;;;;;;;20.00;7.73;;;12.20;99.90;;;;;;5011899;28;20504;-69
2021/12/30 03:13:54;;;;;;;24.00;9.50;;;12.20;99.90;;;;;;5012689;28;20551;-68
2021/12/30 03:16:23;;;;;;;15.20;8.03;;;12.20;99.90;;;;;;5012380;28;20988;-68
2021/12/30 03:18:50;;;;;;;13.00;8.47;;;12.30;99.90;;;;;;5012855;28;20402;-69
2021/12/30 03:21:18;;;;;;;22.60;10.43;;;12.30;99.90;;;;;;5012664;28;20421;-68
2021/12/30 03:23:44;;;;;;;16.50;9.40;;;12.30;99.90;;;;;;5013038;28;20465;-69
2021/12/30 03:26:11;;;;;;;18.37;9.80;;;12.30;99.90;;;;;;5012521;28;20434;-68
2021/12/30 03:28:40;;;;;;;17.03;8.70;;;12.30;99.90;;;;;;5012713;28;20216;-69
2021/12/30 03:31:07;;;;;;;16.17;8.63;;;12.40;99.90;;;;;;5011795;28;20959;-68
2021/12/30 03:33:32;;;;;;;17.67;8.67;;;12.30;99.90;;;;;;5012870;28;20462;-69
2021/12/30 03:36:00;;;;;;;14.13;6.97;;;12.30;99.90;;;;;;5012961;28;20434;-70
2021/12/30 03:38:28;;;;;;;22.50;10.38;;;12.30;99.90;;;;;;5012718;28;20461;-69
2021/12/30 03:40:54;;;;;;;19.30;9.60;;;12.40;99.90;;;;;;5013712;28;20179;-69
2021/12/30 03:43:19;;;;;;;13.57;8.80;;;12.40;99.90;;;;;;5012306;28;20430;-69
2021/12/30 03:45:45;;;;;;;16.70;7.50;;;12.40;99.90;;;;;;5012123;28;20195;-69
2021/12/30 03:48:11;;;;;;;12.83;7.43;;;12.50;99.90;;;;;;5012307;28;20540;-69
2021/12/30 03:50:43;;;;;;;21.80;9.00;;;12.50;99.90;;;;;;5012236;28;20183;-69
2021/12/30 03:53:09;;;;;;;14.97;8.00;;;12.50;99.90;;;;;;5012312;28;20459;-69
2021/12/30 03:55:35;;;;;;;16.57;9.47;;;12.50;99.90;;;;;;5011628;28;20430;-69
2021/12/30 03:58:00;;;;;;;16.10;10.00;;;12.50;99.90;;;;;;5011876;28;20955;-69
2021/12/30 04:00:27;;;;;;;14.00;9.00;;;12.50;99.90;;;;;;5011608;28;20172;-68
2021/12/30 04:02:54;;;;;;;17.67;10.57;;;12.40;99.90;;;;;;5012224;28;20214;-69
2021/12/30 04:05:20;;;;;;;16.23;8.93;;;12.50;99.90;;;;;;5011642;28;20509;-68
2021/12/30 04:07:46;;;;;;;12.37;8.90;;;12.50;99.90;;;;;;5011913;28;20430;-68
2021/12/30 04:10:13;;;;;;;13.30;9.27;;;12.50;99.90;;;;;;5012181;28;20485;-68
2021/12/30 04:12:40;;;;;;;11.87;8.53;;;12.50;99.90;;;;;;5012144;28;20512;-69
2021/12/30 04:15:07;;;;;;;11.40;8.23;;;12.50;99.90;;;;;;5011687;28;20477;-70
2021/12/30 04:17:33;;;;;;;13.53;8.17;;;12.50;99.90;;;;;;5010498;28;20454;-70
2021/12/30 04:19:58;;;;;;;11.83;7.93;;;12.50;99.90;;;;;;5012015;28;20425;-69
2021/12/30 04:22:24;;;;;;;11.40;7.20;;;12.50;99.90;;;;;;5012100;28;20590;-69
2021/12/30 04:24:50;;;;;;;13.00;8.63;;;12.40;99.90;;;;;;5012087;28;20167;-70
2021/12/30 04:27:15;;;;;;;10.87;7.50;;;12.50;99.90;;;;;;5010119;28;20207;-70
2021/12/30 04:29:41;;;;;;;9.80;7.20;;;12.50;99.90;;;;;;5012153;28;20202;-69
2021/12/30 04:32:07;;;;;;;8.70;6.50;;;12.50;99.90;;;;;;5012117;28;20263;-69
2021/12/30 04:34:33;;;;;;;10.30;5.90;;;12.50;99.90;;;;;;5012236;28;20164;-70
2021/12/30 04:36:58;;;;;;;9.43;5.10;;;12.50;99.90;;;;;;5012770;28;20446;-68
2021/12/30 04:39:29;;;;;;;4.80;4.17;;;12.50;99.90;;;;;;5015137;28;20581;-70
2021/12/30 04:41:58;;;;;;;6.90;4.20;;;12.50;99.90;;;;;;5013570;28;20172;-69
2021/12/30 04:44:24;;;;;;;6.07;4.60;;;12.50;99.90;;;;;;5014231;28;20441;-69
2021/12/30 04:46:50;;;;;;;5.50;3.67;;;12.50;99.90;;;;;;5011972;28;20431;-69
2021/12/30 04:49:15;;;;;;;5.17;4.60;;;12.50;99.90;;;;;;5011932;28;20518;-67
2021/12/30 04:51:41;;;;;;;5.00;3.87;;;12.60;99.90;;;;;;5010137;28;20176;-69
2021/12/30 04:54:06;;;;;;;3.83;3.30;;;12.60;99.90;;;;;;5011994;28;20208;-69
2021/12/30 04:56:32;;;;;;;3.13;2.87;;;12.50;99.90;;;;;;5014924;28;20199;-69
2021/12/30 04:58:57;;;;;;;4.17;2.53;;;12.60;99.90;;;;;;5019866;28;20543;-69
2021/12/30 05:01:23;;;;;;;3.53;2.70;;;12.60;99.90;;;;;;5018211;28;20251;-70
2021/12/30 05:03:48;;;;;;;4.80;2.80;;;12.60;99.90;;;;;;5018800;28;20179;-69
2021/12/30 05:06:14;;;;;;;2.10;1.80;;;12.70;99.90;;;;;;5015861;28;20214;-70
2021/12/30 05:08:40;;;;;;;1.87;1.77;;;12.70;99.90;;;;;;5012931;28;20187;-68
2021/12/30 05:11:05;;;;;;;2.23;1.80;;;12.70;99.90;;;;;;4994240;28;20187;-69
2021/12/30 05:13:31;;;;;;;1.60;1.47;;;12.70;99.90;;;;;;5019885;28;20207;-69
2021/12/30 05:15:57;;;;;;;1.67;1.47;;;12.80;99.90;;;;;;5029082;28;20676;-69
2021/12/30 05:18:31;;;;;;;1.20;1.20;;;12.80;99.90;;;;;;5032056;23;20257;-69
2021/12/30 05:20:59;;;;;;;2.03;0.93;;;12.80;99.90;;;;;;4996986;28;20411;-70
2021/12/30 05:23:24;;;;;;;2.27;1.83;;;12.90;99.90;;;;;;5011748;28;21009;-70
2021/12/30 05:25:50;;;;;;;1.40;1.30;;;12.80;99.90;;;;;;5014310;28;20403;-69
2021/12/30 05:28:16;;;;;;;1.30;1.20;;;12.70;99.90;;;;;;5014614;28;20245;-70
2021/12/30 05:30:41;;;;;;;1.83;1.30;;;12.70;99.90;;;;;;5014669;28;20167;-69
2021/12/30 05:33:07;;;;;;;2.50;2.30;;;12.70;99.90;;;;;;5013554;28;20191;-69
2021/12/30 05:35:33;;;;;;;2.50;2.30;;;12.80;99.90;;;;;;5014420;28;20179;-69
2021/12/30 05:38:01;;;;;;;2.20;2.00;;;12.80;99.90;;;;;;5014552;28;20183;-69
2021/12/30 05:40:26;;;;;;;3.20;2.90;;;12.80;99.90;;;;;;5013088;28;20780;-69
2021/12/30 05:42:52;;;;;;;3.70;3.30;;;12.80;99.90;;;;;;5012542;28;20210;-70
2021/12/30 05:45:18;;;;;;;5.00;3.50;;;12.80;99.90;;;;;;5014002;28;20184;-70
2021/12/30 05:47:46;;;;;;;5.33;4.07;;;12.80;99.90;;;;;;5013829;28;20258;-70
2021/12/30 05:50:13;;;;;;;5.27;4.67;;;12.80;99.90;;;;;;5014197;28;20452;-70
2021/12/30 05:52:39;;;;;;;5.67;5.03;;;12.80;99.90;;;;;;5013976;28;20951;-70
2021/12/30 05:55:06;;;;;;;6.90;5.57;;;12.90;99.90;;;;;;5013870;28;20590;-69
2021/12/30 05:57:32;;;;;;;5.87;5.27;;;12.90;99.90;;;;;;5013664;28;20191;-70
2021/12/30 05:59:58;;;;;;;8.40;6.60;;;12.90;99.90;;;;;;5013686;28;20414;-69
2021/12/30 06:02:23;;;;;;;9.80;7.93;;;12.90;99.90;;;;;;5013824;28;20776;-70
2021/12/30 06:04:49;;;;;;;7.23;6.30;;;12.90;99.90;;;;;;5013595;28;20225;-70
2021/12/30 06:07:15;;;;;;;9.57;6.40;;;12.90;99.90;;;;;;5013625;28;20835;-69
2021/12/30 06:09:41;;;;;;;9.10;7.00;;;12.90;99.90;;;;;;5013472;28;20175;-69
2021/12/30 06:12:08;;;;;;;7.60;6.80;;;13.00;99.90;;;;;;5013977;28;20184;-70
2021/12/30 06:14:33;;;;;;;9.80;8.80;;;12.90;99.90;;;;;;5006927;28;20426;-69
2021/12/30 06:16:59;;;;;;;9.90;8.77;;;13.00;99.90;;;;;;5012293;28;20461;-70
2021/12/30 06:19:25;;;;;;;9.67;8.37;;;13.00;99.90;;;;;;5003873;28;20253;-69
2021/12/30 06:21:51;;;;;;;10.90;9.67;;;13.00;99.90;;;;;;5006591;28;20203;-70
2021/12/30 06:24:16;;;;;;;12.80;10.30;;;13.10;99.90;;;;;;5008250;28;20208;-70
2021/12/30 06:26:42;;;;;;;12.80;9.70;;;13.10;99.90;;;;;;5004411;28;20257;-70
2021/12/30 06:29:08;;;;;;;12.60;10.10;;;13.00;99.90;;;;;;5011085;28;20211;-71
2021/12/30 06:31:33;;;;;;;12.10;9.73;;;13.00;99.90;;;;;;5005662;28;20218;-71
2021/12/30 06:33:59;;;;;;;13.80;11.50;;;13.10;99.90;;;;;;5008526;28;20286;-71
2021/12/30 06:36:24;;;;;;;12.30;10.13;;;13.00;99.90;;;;;;5009316;28;20241;-71
2021/12/30 06:38:50;;;;;;;17.10;11.03;;;13.10;99.90;;;;;;5004229;28;20207;-71
2021/12/30 06:41:16;;;;;;;13.03;10.27;;;13.00;99.90;;;;;;5011540;28;20323;-70
2021/12/30 06:43:42;;;;;;;12.07;10.30;;;13.10;99.90;;;;;;5006895;28;20537;-70
2021/12/30 06:46:10;;;;;;;12.50;9.70;;;13.10;99.90;;;;;;5006474;28;20211;-70
2021/12/30 06:48:35;;;;;;;14.67;10.20;;;13.10;99.90;;;;;;5009043;28;20533;-71
2021/12/30 06:51:04;;;;;;;13.93;11.53;;;13.10;99.90;;;;;;5008619;28;20477;-70
2021/12/30 06:53:30;;;;;;;12.10;9.57;;;13.10;99.90;;;;;;5007819;28;20470;-70
2021/12/30 06:55:57;;;;;;;13.47;10.20;;;13.10;99.90;;;;;;5003927;28;20462;-70
2021/12/30 06:58:23;;;;;;;11.80;9.50;;;13.20;99.90;;;;;;5009197;28;20206;-71
2021/12/30 07:00:49;;;;;;;10.90;9.67;;;13.20;99.90;;;;;;5010392;28;20450;-71
2021/12/30 07:03:15;;;;;;;10.70;8.50;;;13.20;99.90;;;;;;5010543;28;20289;-71
2021/12/30 07:05:41;;;;;;;9.83;8.40;;;13.20;99.90;;;;;;5010252;28;21083;-70
2021/12/30 07:08:06;;;;;;;9.30;8.27;;;13.20;99.90;;;;;;5012196;28;20222;-70
2021/12/30 07:10:32;;;;;;;8.57;7.67;;;13.30;99.90;;;;;;5010699;28;20226;-69
2021/12/30 07:12:57;;;;;;;9.00;7.80;;;13.20;99.90;;;;;;5011748;28;20238;-70
2021/12/30 07:15:23;;;;;;;7.40;6.70;;;13.30;99.90;;;;;;5011851;28;20216;-71
2021/12/30 07:17:49;;;;;;;9.10;6.97;;;13.20;99.90;;;;;;5011536;28;20210;-71
2021/12/30 07:20:15;;;;;;;7.00;6.30;;;13.30;99.90;;;;;;5010283;28;20200;-70
2021/12/30 07:22:41;;;;;;;8.47;6.93;;;13.30;99.90;;;;;;5009906;28;20450;-70
2021/12/30 07:25:08;;;;;;;7.70;7.00;;;13.30;99.90;;;;;;5003948;28;20530;-70
2021/12/30 07:27:34;;;;;;;10.03;8.03;;;13.30;99.90;;;;;;5004926;28;20541;-71
2021/12/30 07:30:01;;;;;;;8.40;6.90;;;13.30;99.90;;;;;;5011706;28;21055;-70
2021/12/30 07:32:27;;;;;;;8.50;7.50;;;13.30;99.90;;;;;;5010006;28;20471;-71
2021/12/30 07:34:52;;;;;;;8.47;7.53;;;13.30;99.90;;;;;;5005404;28;20433;-71
2021/12/30 07:37:18;;;;;;;8.87;7.80;;;13.30;99.90;;;;;;5004294;28;20215;-70
2021/12/30 07:39:45;;;;;;;7.70;6.40;;;13.30;99.90;;;;;;5002209;28;20563;-71
2021/12/30 07:42:11;;;;;;;8.98;7.60;;;13.40;99.90;;;;;;5007691;28;20426;-70
2021/12/30 07:44:38;;;;;;;10.27;9.07;;;13.40;99.90;;;;;;5005554;28;20200;-71
2021/12/30 07:47:05;;;;;;;8.50;7.60;;;13.40;99.90;;;;;;4998475;28;20545;-70
2021/12/30 07:49:32;;;;;;;10.00;9.00;;;13.40;99.90;;;;;;5007091;28;20803;-70
2021/12/30 07:51:58;;;;;;;9.57;8.57;;;13.40;99.90;;;;;;5007684;28;20210;-70
2021/12/30 07:54:24;;;;;;;8.73;7.80;;;13.40;99.90;;;;;;5005312;28;20512;-70
2021/12/30 07:56:50;;;;;;;9.07;7.97;;;13.40;99.90;;;;;;5007519;28;20466;-69
2021/12/30 07:59:16;;;;;;;10.03;8.43;;;13.40;99.90;;;;;;5008059;28;20504;-70
2021/12/30 08:01:41;;;;;;;8.80;7.90;;;13.40;99.90;;;;;;5007811;28;20277;-70
2021/12/30 08:04:07;;;;;;;13.00;9.43;;;13.40;99.90;;;;;;5003852;28;20265;-70
2021/12/30 08:06:33;;;;;;;11.07;8.80;;;13.30;99.90;;;;;;5002362;28;20794;-70
2021/12/30 08:08:59;;;;;;;10.23;8.50;;;13.40;99.90;;;;;;5008241;28;20182;-71
2021/12/30 08:11:24;;;;;;;10.10;8.47;;;13.40;99.90;;;;;;5002191;28;20461;-71
2021/12/30 08:13:50;;;;;;;11.53;9.13;;;13.40;99.90;;;;;;5007414;28;20238;-69
2021/12/30 08:16:15;;;;;;;10.57;8.47;;;13.40;99.90;;;;;;5007763;28;20266;-70
2021/12/30 08:18:41;;;;;;;10.00;8.10;;;13.40;99.90;;;;;;5008113;28;20265;-72
2021/12/30 08:21:08;;;;;;;9.70;8.70;;;13.30;99.90;;;;;;5005060;28;20625;-70
2021/12/30 08:23:35;;;;;;;10.00;8.03;;;13.30;99.90;;;;;;5004100;28;20600;-70
2021/12/30 08:26:01;;;;;;;10.23;8.10;;;13.30;99.90;;;;;;5007803;28;20787;-70
2021/12/30 08:28:27;;;;;;;9.80;7.83;;;13.30;99.90;;;;;;5006058;28;20463;-70
2021/12/30 08:30:53;;;;;;;7.77;6.97;;;13.30;99.90;;;;;;5006401;28;20422;-69
2021/12/30 08:33:19;;;;;;;9.70;8.07;;;13.30;99.90;;;;;;5007191;28;20477;-71
2021/12/30 08:35:44;;;;;;;8.57;7.67;;;13.30;99.90;;;;;;5007722;28;20226;-71
2021/12/30 08:38:12;;;;;;;9.60;8.13;;;13.30;99.90;;;;;;5007510;28;20195;-70
2021/12/30 08:40:38;;;;;;;10.82;9.73;;;13.30;99.90;;;;;;5006253;28;20457;-69
2021/12/30 08:43:06;;;;;;;10.47;9.17;;;13.30;99.90;;;;;;5008327;28;20266;-69
2021/12/30 08:45:36;;;;;;;9.63;8.17;;;13.40;99.90;;;;;;5007826;28;20422;-68
2021/12/30 08:48:02;;;;;;;11.00;8.20;;;13.40;99.90;;;;;;5011325;28;20960;-69
2021/12/30 08:50:28;;;;;;;8.73;7.83;;;13.50;99.90;;;;;;5010024;28;20440;-69
2021/12/30 08:52:53;;;;;;;13.03;7.83;;;13.50;99.90;;;;;;5011896;28;20458;-69
2021/12/30 08:55:19;;;;;;;11.53;7.90;;;13.50;99.90;;;;;;5011534;28;20271;-69
2021/12/30 08:57:47;;;;;;;9.50;7.70;;;13.50;99.90;;;;;;5011327;28;20207;-69
2021/12/30 09:00:19;;;;;;;8.53;7.17;;;13.50;99.90;;;;;;5010855;28;20184;-69
2021/12/30 09:02:46;;;;;;;9.53;7.60;;;13.60;99.90;;;;;;5000624;28;20556;-69
2021/12/30 09:05:12;;;;;;;8.57;7.67;;;13.60;99.90;;;;;;5006521;28;20438;-69
2021/12/30 09:07:38;;;;;;;9.13;7.20;;;13.60;99.90;;;;;;5004245;28;20545;-68
2021/12/30 09:10:08;;;;;;;8.00;6.63;;;13.60;99.90;;;;;;5010413;28;20517;-68
2021/12/30 09:12:34;;;;;;;6.90;6.20;;;13.60;99.90;;;;;;5006033;28;20576;-69
2021/12/30 09:15:00;;;;;;;9.50;6.80;;;13.60;99.90;;;;;;5011087;28;20458;-69
2021/12/30 09:17:26;;;;;;;7.67;6.40;;;13.60;99.90;;;;;;5010730;28;20493;-69
2021/12/30 09:19:51;;;;;;;8.40;7.13;;;13.50;99.90;;;;;;5010941;28;20209;-68
2021/12/30 09:22:17;;;;;;;8.03;7.20;;;13.50;99.90;;;;;;5008695;28;20194;-71
2021/12/30 09:24:43;;;;;;;9.60;7.90;;;13.50;99.90;;;;;;5007778;28;20232;-70
2021/12/30 09:27:08;;;;;;;13.20;8.80;;;13.50;99.90;;;;;;5007909;28;20241;-69
2021/12/30 09:29:34;;;;;;;12.57;8.63;;;13.50;99.90;;;;;;5010649;28;20264;-69
2021/12/30 09:32:00;;;;;;;11.83;8.90;;;13.50;99.90;;;;;;5006370;28;21418;-70
2021/12/30 09:34:26;;;;;;;11.40;9.97;;;13.60;99.90;;;;;;5003376;28;20207;-70
2021/12/30 09:36:52;;;;;;;10.90;9.53;;;13.60;99.90;;;;;;5009452;28;20905;-70
2021/12/30 09:39:18;;;;;;;12.93;9.47;;;13.50;99.90;;;;;;5009856;28;20446;-69
2021/12/30 09:41:45;;;;;;;11.60;9.53;;;13.50;99.90;;;;;;5010209;28;20450;-69
2021/12/30 09:44:14;;;;;;;12.57;9.90;;;13.60;99.90;;;;;;5009983;28;20449;-70
2021/12/30 09:46:40;;;;;;;12.00;9.80;;;13.60;99.90;;;;;;5003406;28;20461;-70
2021/12/30 09:49:08;;;;;;;16.33;10.23;;;13.60;99.90;;;;;;5004390;28;20442;-69
2021/12/30 09:51:35;;;;;;;12.47;10.73;;;13.60;99.90;;;;;;5004491;28;20997;-68
2021/12/30 09:54:01;;;;;;;13.23;9.50;;;13.70;99.90;;;;;;5009853;28;20548;-71
2021/12/30 09:56:29;;;;;;;10.70;9.37;;;13.70;99.90;;;;;;5007221;28;20921;-70
2021/12/30 09:58:55;;;;;;;11.17;8.90;;;13.70;99.90;;;;;;5008486;28;20970;-70
2021/12/30 10:01:21;;;;;;;11.10;9.00;;;13.70;99.90;;;;;;5010122;28;20450;-70
2021/12/30 10:03:46;;;;;;;10.80;8.73;;;13.80;99.90;;;;;;5000699;28;20455;-70
2021/12/30 10:06:16;;;;;;;9.37;8.43;;;13.80;99.90;;;;;;5006696;28;21068;-70
2021/12/30 10:09:09;;;;;;;9.70;8.80;;;13.80;99.90;;;;;;5007671;28;20314;-69
2021/12/30 10:11:44;;;;;;;8.20;7.40;;;13.90;99.90;;;;;;5006215;28;20455;-71
2021/12/30 10:14:10;;;;;;;7.80;7.10;;;13.90;99.90;;;;;;5005158;28;20469;-70
2021/12/30 10:16:35;;;;;;;6.30;5.80;;;13.90;99.90;;;;;;5008610;28;20442;-69
2021/12/30 10:19:05;;;;;;;7.10;6.50;;;13.90;99.90;;;;;;5010431;28;20584;-70
2021/12/30 10:21:41;;;;;;;6.37;5.83;;;13.90;99.90;;;;;;5009724;28;20272;-69
2021/12/30 10:24:09;;;;;;;6.10;5.60;;;13.90;99.90;;;;;;5008806;28;20588;-69
2021/12/30 10:26:55;;;;;;;5.80;5.30;;;13.90;99.90;;;;;;5008301;28;20454;-73
2021/12/30 10:29:21;;;;;;;5.40;4.90;;;14.00;99.90;;;;;;5008717;28;20955;-70
2021/12/30 10:31:48;;;;;;;5.23;4.83;;;14.10;99.90;;;;;;5001715;28;20479;-69
2021/12/30 10:34:16;;;;;;;4.80;4.40;;;14.00;99.90;;;;;;4998796;28;20477;-69
2021/12/30 10:36:44;;;;;;;4.90;4.50;;;14.00;99.90;;;;;;5007513;28;20453;-69
2021/12/30 10:39:23;;;;;;;4.90;4.50;;;14.00;99.90;;;;;;5008023;28;20438;-70
2021/12/30 10:41:52;;;;;;;4.33;4.03;;;14.00;99.90;;;;;;5008304;28;20541;-69
2021/12/30 10:44:19;;;;;;;4.50;4.10;;;14.00;99.90;;;;;;5008106;28;20500;-70
2021/12/30 10:46:46;;;;;;;5.00;4.60;;;14.00;99.90;;;;;;5007004;28;20461;-69
2021/12/30 10:49:21;;;;;;;4.13;3.70;;;14.00;99.90;;;;;;5008281;28;20965;-70
2021/12/30 10:51:49;;;;;;;4.30;3.90;;;14.10;99.90;;;;;;5007826;28;20490;-69
2021/12/30 10:54:27;;;;;;;5.90;4.00;;;14.00;99.90;;;;;;5008289;28;20544;-70
2021/12/30 10:57:07;;;;;;;4.23;3.93;;;14.00;99.90;;;;;;4996280;28;20470;-70
2021/12/30 10:59:42;;;;;;;3.60;3.30;;;14.00;99.90;;;;;;5008110;28;20504;-69
2021/12/30 11:02:17;;;;;;;4.13;3.83;;;14.10;99.90;;;;;;5006428;28;20442;-70
2021/12/30 11:04:48;;;;;;;6.80;4.10;;;14.20;99.90;;;;;;4998110;28;20446;-70
2021/12/30 11:07:21;;;;;;;5.53;4.10;;;14.20;99.90;;;;;;5007676;28;20442;-70
2021/12/30 11:09:51;;;;;;;4.43;3.93;;;14.20;99.90;;;;;;5007947;28;21009;-70
2021/12/30 11:12:25;;;;;;;4.90;4.27;;;14.20;99.90;;;;;;5006555;28;20458;-70
2021/12/30 11:14:50;;;;;;;5.27;4.17;;;14.20;99.90;;;;;;5008243;28;20485;-70
2021/12/30 11:17:21;;;;;;;3.70;3.40;;;14.20;99.90;;;;;;5007027;28;21002;-69
2021/12/30 11:19:55;;;;;;;6.00;3.53;;;14.20;99.90;;;;;;5008466;28;20199;-70
2021/12/30 11:22:24;;;;;;;4.77;2.80;;;14.20;99.90;;;;;;5007719;28;20445;-70
2021/12/30 11:24:53;;;;;;;4.10;3.70;;;14.30;99.90;;;;;;5006086;28;20445;-70
2021/12/30 11:27:20;;;;;;;5.83;3.50;;;14.20;99.90;;;;;;5007392;28;20516;-70
2021/12/30 11:29:48;;;;;;;3.67;3.30;;;14.30;99.90;;;;;;5007441;28;20435;-69
2021/12/30 11:32:20;;;;;;;3.50;3.20;;;14.30;99.90;;;;;;5007332;28;20501;-70
2021/12/30 11:34:47;;;;;;;4.25;3.70;;;14.30;99.90;;;;;;4997434;28;20443;-69
2021/12/30 11:37:14;;;;;;;3.60;3.13;;;14.20;99.90;;;;;;5007253;28;20207;-70
2021/12/30 11:39:46;;;;;;;4.00;3.60;;;14.20;99.90;;;;;;5008123;28;20480;-69
2021/12/30 11:42:21;;;;;;;4.90;3.70;;;14.20;99.90;;;;;;5007614;28;20495;-69
2021/12/30 11:44:52;;;;;;;3.30;2.97;;;14.20;99.90;;;;;;5007873;28;20445;-68
2021/12/30 11:47:35;;;;;;;4.30;3.20;;;14.30;99.90;;;;;;5002326;28;20991;-70
2021/12/30 11:50:02;;;;;;;3.20;2.83;;;14.30;99.90;;;;;;5007046;28;20444;-70
2021/12/30 11:52:52;;;;;;;3.87;3.23;;;14.20;99.90;;;;;;5007648;28;20458;-69
2021/12/30 11:55:46;;;;;;;5.87;3.70;;;14.20;99.90;;;;;;5004381;28;20449;-69
2021/12/30 11:58:32;;;;;;;3.20;2.97;;;14.20;99.90;;;;;;5004742;28;20542;-70
2021/12/30 12:01:11;;;;;;;4.43;3.37;;;14.20;99.90;;;;;;4998967;28;20438;-70
2021/12/30 12:03:59;;;;;;;4.80;3.60;;;14.20;99.90;;;;;;5010057;28;20414;-69
2021/12/30 12:06:24;;;;;;;4.83;3.40;;;14.20;99.90;;;;;;5018193;23;20517;-68
2021/12/30 12:08:52;;;;;;;4.03;3.23;;;14.20;99.90;;;;;;4990067;28;20480;-68
2021/12/30 12:11:21;;;;;;;7.57;3.43;;;14.30;99.90;;;;;;4978599;28;20177;-66
2021/12/30 12:13:49;;;;;;;4.97;3.47;;;14.20;99.90;;;;;;4972167;28;20471;-68
2021/12/30 12:16:36;;;;;;;3.20;2.90;;;14.20;99.90;;;;;;4958039;28;20451;-70
2021/12/30 12:19:07;;;;;;;3.47;3.17;;;14.30;99.90;;;;;;4973826;28;20898;-67
2021/12/30 12:21:44;;;;;;;4.78;3.50;;;14.30;99.90;;;;;;4976885;28;20422;-68
2021/12/30 12:24:21;;;;;;;4.37;3.97;;;14.30;99.90;;;;;;4963461;28;20800;-67
2021/12/30 12:26:54;;;;;;;4.57;3.70;;;14.30;99.90;;;;;;4941634;29;20858;-67
2021/12/30 12:29:32;;;;;;;5.70;3.90;;;14.30;99.90;;;;;;4942134;29;20441;-66
2021/12/30 12:32:03;;;;;;;4.33;3.10;;;14.30;99.90;;;;;;4949422;29;20424;-65
2021/12/30 12:34:38;;;;;;;5.67;3.33;;;14.40;99.90;;;;;;4960538;28;20460;-67
2021/12/30 12:37:23;;;;;;;5.47;3.53;;;14.30;99.90;;;;;;4960308;28;20535;-66
2021/12/30 12:39:58;;;;;;;5.63;3.43;;;14.30;99.90;;;;;;4960406;28;20524;-67
2021/12/30 12:42:42;;;;;;;5.00;3.23;;;14.30;99.90;;;;;;4960868;28;20421;-66
2021/12/30 12:45:16;;;;;;;5.30;3.63;;;14.30;99.90;;;;;;4961800;28;20965;-67